sensor_id;sensor_type;location;lat;lon;timestamp;P1;durP1;ratioP1;P2;durP2;ratioP2
17449;SDS011;8842;51.244;7.102;2022-07-23T00:00:08;14.90;;;14.10;;
17449;SDS011;8842;51.244;7.102;2022-07-23T00:05:13;15.30;;;14.50;;
17449;SDS011;8842;51.244;7.102;2022-07-23T00:10:25;15.10;;;14.30;;
17449;SDS011;8842;51.244;7.102;2022-07-23T00:20:44;15.00;;;14.20;;
17449;SDS011;8842;51.244;7.102;2022-07-23T00:25:48;14.93;;;14.13;;
17449;SDS011;8842;51.244;7.102;2022-07-23T00:31:00;15.87;;;14.97;;
17449;SDS011;8842;51.244;7.102;2022-07-23T00:36:05;15.77;;;14.87;;
17449;SDS011;8842;51.244;7.102;2022-07-23T00:41:17;15.90;;;15.00;;
17449;SDS011;8842;51.244;7.102;2022-07-23T00:46:22;15.70;;;14.80;;
17449;SDS011;8842;51.244;7.102;2022-07-23T00:51:34;15.80;;;14.90;;
17449;SDS011;8842;51.244;7.102;2022-07-23T01:01:49;17.03;;;16.03;;
17449;SDS011;8842;51.244;7.102;2022-07-23T01:12:06;16.17;;;15.27;;
17449;SDS011;8842;51.244;7.102;2022-07-23T01:17:11;16.40;;;15.50;;
17449;SDS011;8842;51.244;7.102;2022-07-23T01:27:28;15.97;;;15.07;;
17449;SDS011;8842;51.244;7.102;2022-07-23T01:32:40;15.60;;;14.70;;
17449;SDS011;8842;51.244;7.102;2022-07-23T01:42:58;15.70;;;14.80;;
17449;SDS011;8842;51.244;7.102;2022-07-23T01:48:03;15.40;;;14.60;;
17449;SDS011;8842;51.244;7.102;2022-07-23T01:53:15;15.80;;;14.90;;
17449;SDS011;8842;51.244;7.102;2022-07-23T01:58:20;15.80;;;14.90;;
17449;SDS011;8842;51.244;7.102;2022-07-23T02:03:32;16.00;;;15.10;;
17449;SDS011;8842;51.244;7.102;2022-07-23T02:08:36;15.97;;;15.07;;
17449;SDS011;8842;51.244;7.102;2022-07-23T02:13:48;15.83;;;14.93;;
17449;SDS011;8842;51.244;7.102;2022-07-23T02:19:00;15.40;;;14.60;;
17449;SDS011;8842;51.244;7.102;2022-07-23T02:24:05;15.37;;;14.57;;
17449;SDS011;8842;51.244;7.102;2022-07-23T02:29:17;15.33;;;14.53;;
17449;SDS011;8842;51.244;7.102;2022-07-23T02:34:22;15.30;;;14.50;;
17449;SDS011;8842;51.244;7.102;2022-07-23T02:39:33;15.60;;;14.70;;
17449;SDS011;8842;51.244;7.102;2022-07-23T02:44:38;15.93;;;15.03;;
17449;SDS011;8842;51.244;7.102;2022-07-23T02:49:50;15.40;;;14.60;;
17449;SDS011;8842;51.244;7.102;2022-07-23T02:54:54;15.30;;;14.50;;
17449;SDS011;8842;51.244;7.102;2022-07-23T03:00:08;15.20;;;14.40;;
17449;SDS011;8842;51.244;7.102;2022-07-23T03:05:23;16.00;;;15.10;;
17449;SDS011;8842;51.244;7.102;2022-07-23T03:10:28;15.27;;;14.47;;
17449;SDS011;8842;51.244;7.102;2022-07-23T03:15:40;15.33;;;14.53;;
17449;SDS011;8842;51.244;7.102;2022-07-23T03:20:45;15.47;;;14.67;;
17449;SDS011;8842;51.244;7.102;2022-07-23T03:25:57;15.23;;;14.43;;
17449;SDS011;8842;51.244;7.102;2022-07-23T03:31:01;15.40;;;14.60;;
17449;SDS011;8842;51.244;7.102;2022-07-23T03:36:13;15.37;;;14.57;;
17449;SDS011;8842;51.244;7.102;2022-07-23T03:41:17;15.40;;;14.60;;
17449;SDS011;8842;51.244;7.102;2022-07-23T03:46:29;14.97;;;14.17;;
17449;SDS011;8842;51.244;7.102;2022-07-23T03:51:33;15.63;;;14.73;;
17449;SDS011;8842;51.244;7.102;2022-07-23T03:56:38;15.63;;;14.77;;
17449;SDS011;8842;51.244;7.102;2022-07-23T04:01:42;15.57;;;14.77;;
17449;SDS011;8842;51.244;7.102;2022-07-23T04:06:54;15.43;;;14.63;;
17449;SDS011;8842;51.244;7.102;2022-07-23T04:11:58;15.47;;;14.67;;
17449;SDS011;8842;51.244;7.102;2022-07-23T04:17:10;15.50;;;14.70;;
17449;SDS011;8842;51.244;7.102;2022-07-23T04:22:14;15.67;;;14.77;;
17449;SDS011;8842;51.244;7.102;2022-07-23T04:27:26;15.83;;;14.93;;
17449;SDS011;8842;51.244;7.102;2022-07-23T04:32:38;15.80;;;14.90;;
17449;SDS011;8842;51.244;7.102;2022-07-23T04:37:42;15.63;;;14.73;;
17449;SDS011;8842;51.244;7.102;2022-07-23T04:42:54;15.80;;;14.90;;
17449;SDS011;8842;51.244;7.102;2022-07-23T04:47:58;15.50;;;14.70;;
17449;SDS011;8842;51.244;7.102;2022-07-23T04:53:10;15.30;;;14.50;;
17449;SDS011;8842;51.244;7.102;2022-07-23T04:58:15;15.37;;;14.57;;
17449;SDS011;8842;51.244;7.102;2022-07-23T05:03:26;15.80;;;14.90;;
17449;SDS011;8842;51.244;7.102;2022-07-23T05:08:31;15.80;;;14.90;;
17449;SDS011;8842;51.244;7.102;2022-07-23T05:13:42;16.20;;;15.30;;
17449;SDS011;8842;51.244;7.102;2022-07-23T05:18:47;15.50;;;14.70;;
17449;SDS011;8842;51.244;7.102;2022-07-23T05:23:59;15.20;;;14.40;;
17449;SDS011;8842;51.244;7.102;2022-07-23T05:29:03;14.87;;;14.07;;
17449;SDS011;8842;51.244;7.102;2022-07-23T05:34:15;14.97;;;14.17;;
17449;SDS011;8842;51.244;7.102;2022-07-23T05:39:27;15.07;;;14.27;;
17449;SDS011;8842;51.244;7.102;2022-07-23T05:44:39;14.60;;;13.80;;
17449;SDS011;8842;51.244;7.102;2022-07-23T05:49:51;15.10;;;14.30;;
17449;SDS011;8842;51.244;7.102;2022-07-23T05:55:03;14.87;;;14.07;;
17449;SDS011;8842;51.244;7.102;2022-07-23T06:00:09;15.60;;;14.57;;
17449;SDS011;8842;51.244;7.102;2022-07-23T06:05:21;14.93;;;14.13;;
17449;SDS011;8842;51.244;7.102;2022-07-23T06:10:26;14.07;;;13.37;;
17449;SDS011;8842;51.244;7.102;2022-07-23T06:15:38;14.30;;;13.50;;
17449;SDS011;8842;51.244;7.102;2022-07-23T06:20:42;14.00;;;13.30;;
17449;SDS011;8842;51.244;7.102;2022-07-23T06:25:54;13.53;;;12.83;;
17449;SDS011;8842;51.244;7.102;2022-07-23T06:30:58;13.57;;;12.87;;
17449;SDS011;8842;51.244;7.102;2022-07-23T06:36:10;14.20;;;13.40;;
17449;SDS011;8842;51.244;7.102;2022-07-23T06:41:14;13.53;;;12.83;;
17449;SDS011;8842;51.244;7.102;2022-07-23T06:46:26;14.33;;;13.53;;
17449;SDS011;8842;51.244;7.102;2022-07-23T06:51:30;13.47;;;12.77;;
17449;SDS011;8842;51.244;7.102;2022-07-23T06:56:42;12.97;;;12.27;;
17449;SDS011;8842;51.244;7.102;2022-07-23T07:07:00;13.00;;;12.30;;
17449;SDS011;8842;51.244;7.102;2022-07-23T07:17:15;13.00;;;12.30;;
17449;SDS011;8842;51.244;7.102;2022-07-23T07:22:30;12.90;;;12.20;;
17449;SDS011;8842;51.244;7.102;2022-07-23T07:27:44;13.00;;;12.30;;
17449;SDS011;8842;51.244;7.102;2022-07-23T07:32:56;12.83;;;12.13;;
17449;SDS011;8842;51.244;7.102;2022-07-23T07:43:11;12.13;;;11.50;;
17449;SDS011;8842;51.244;7.102;2022-07-23T07:48:15;12.20;;;11.60;;
17449;SDS011;8842;51.244;7.102;2022-07-23T07:53:30;11.53;;;10.93;;
17449;SDS011;8842;51.244;7.102;2022-07-23T07:58:44;11.90;;;11.30;;
17449;SDS011;8842;51.244;7.102;2022-07-23T08:03:58;11.77;;;11.17;;
17449;SDS011;8842;51.244;7.102;2022-07-23T08:14:16;10.40;;;9.90;;
17449;SDS011;8842;51.244;7.102;2022-07-23T08:19:20;10.75;;;10.15;;
17449;SDS011;8842;51.244;7.102;2022-07-23T08:24:35;9.93;;;9.43;;
17449;SDS011;8842;51.244;7.102;2022-07-23T08:34:50;10.57;;;10.00;;
17449;SDS011;8842;51.244;7.102;2022-07-23T08:39:54;9.33;;;8.83;;
17449;SDS011;8842;51.244;7.102;2022-07-23T08:44:59;8.78;;;8.38;;
17449;SDS011;8842;51.244;7.102;2022-07-23T08:50:03;8.63;;;8.23;;
17449;SDS011;8842;51.244;7.102;2022-07-23T08:55:10;7.90;;;7.50;;
17449;SDS011;8842;51.244;7.102;2022-07-23T09:00:24;7.70;;;7.30;;
17449;SDS011;8842;51.244;7.102;2022-07-23T09:05:29;7.30;;;7.00;;
17449;SDS011;8842;51.244;7.102;2022-07-23T09:10:47;7.72;;;7.33;;
17449;SDS011;8842;51.244;7.102;2022-07-23T09:15:55;7.55;;;7.20;;
17449;SDS011;8842;51.244;7.102;2022-07-23T09:21:08;7.75;;;7.35;;
17449;SDS011;8842;51.244;7.102;2022-07-23T09:31:32;6.90;;;6.60;;
17449;SDS011;8842;51.244;7.102;2022-07-23T09:36:39;6.83;;;6.53;;
17449;SDS011;8842;51.244;7.102;2022-07-23T09:41:45;6.95;;;6.65;;
17449;SDS011;8842;51.244;7.102;2022-07-23T09:46:59;6.95;;;6.65;;
17449;SDS011;8842;51.244;7.102;2022-07-23T09:52:04;7.28;;;6.87;;
17449;SDS011;8842;51.244;7.102;2022-07-23T09:57:18;7.00;;;6.70;;
17449;SDS011;8842;51.244;7.102;2022-07-23T10:02:24;6.70;;;6.40;;
17449;SDS011;8842;51.244;7.102;2022-07-23T10:07:39;7.10;;;6.70;;
17449;SDS011;8842;51.244;7.102;2022-07-23T10:12:45;7.20;;;6.90;;
17449;SDS011;8842;51.244;7.102;2022-07-23T10:23:24;7.70;;;7.30;;
17449;SDS011;8842;51.244;7.102;2022-07-23T10:28:32;7.97;;;7.58;;
17449;SDS011;8842;51.244;7.102;2022-07-23T10:40:11;8.43;;;7.87;;
17449;SDS011;8842;51.244;7.102;2022-07-23T10:45:28;8.95;;;8.45;;
17449;SDS011;8842;51.244;7.102;2022-07-23T10:50:34;8.33;;;7.87;;
17449;SDS011;8842;51.244;7.102;2022-07-23T10:55:47;7.42;;;7.05;;
17449;SDS011;8842;51.244;7.102;2022-07-23T11:06:05;8.40;;;8.00;;
17449;SDS011;8842;51.244;7.102;2022-07-23T11:11:10;8.63;;;8.23;;
17449;SDS011;8842;51.244;7.102;2022-07-23T11:16:23;8.23;;;7.83;;
17449;SDS011;8842;51.244;7.102;2022-07-23T11:21:50;8.48;;;8.08;;
17449;SDS011;8842;51.244;7.102;2022-07-23T11:27:03;8.73;;;8.25;;
17449;SDS011;8842;51.244;7.102;2022-07-23T11:37:34;8.78;;;8.38;;
17449;SDS011;8842;51.244;7.102;2022-07-23T11:42:41;8.60;;;8.20;;
17449;SDS011;8842;51.244;7.102;2022-07-23T11:48:02;9.10;;;8.60;;
17449;SDS011;8842;51.244;7.102;2022-07-23T11:53:08;8.93;;;8.53;;
17449;SDS011;8842;51.244;7.102;2022-07-23T11:58:20;8.55;;;8.15;;
17449;SDS011;8842;51.244;7.102;2022-07-23T12:03:25;9.20;;;8.70;;
17449;SDS011;8842;51.244;7.102;2022-07-23T12:08:41;8.90;;;8.50;;
17449;SDS011;8842;51.244;7.102;2022-07-23T12:13:55;9.30;;;8.80;;
17449;SDS011;8842;51.244;7.102;2022-07-23T12:19:07;9.68;;;9.18;;
17449;SDS011;8842;51.244;7.102;2022-07-23T12:24:12;8.93;;;8.43;;
17449;SDS011;8842;51.244;7.102;2022-07-23T12:29:33;8.75;;;8.35;;
17449;SDS011;8842;51.244;7.102;2022-07-23T12:34:39;9.03;;;8.60;;
17449;SDS011;8842;51.244;7.102;2022-07-23T12:39:51;9.35;;;8.85;;
17449;SDS011;8842;51.244;7.102;2022-07-23T12:50:30;8.90;;;8.50;;
17449;SDS011;8842;51.244;7.102;2022-07-23T12:55:37;9.00;;;8.60;;
17449;SDS011;8842;51.244;7.102;2022-07-23T13:00:56;9.40;;;8.90;;
17449;SDS011;8842;51.244;7.102;2022-07-23T13:06:03;9.00;;;8.60;;
17449;SDS011;8842;51.244;7.102;2022-07-23T13:11:15;9.30;;;8.80;;
17449;SDS011;8842;51.244;7.102;2022-07-23T13:16:20;8.80;;;8.40;;
17449;SDS011;8842;51.244;7.102;2022-07-23T13:21:31;8.70;;;8.30;;
17449;SDS011;8842;51.244;7.102;2022-07-23T13:26:36;9.20;;;8.70;;
17449;SDS011;8842;51.244;7.102;2022-07-23T13:31:48;8.80;;;8.40;;
17449;SDS011;8842;51.244;7.102;2022-07-23T13:36:53;8.75;;;8.35;;
17449;SDS011;8842;51.244;7.102;2022-07-23T13:41:57;8.70;;;8.30;;
17449;SDS011;8842;51.244;7.102;2022-07-23T13:47:09;8.78;;;8.38;;
17449;SDS011;8842;51.244;7.102;2022-07-23T13:52:21;8.80;;;8.40;;
17449;SDS011;8842;51.244;7.102;2022-07-23T13:57:25;8.80;;;8.40;;
17449;SDS011;8842;51.244;7.102;2022-07-23T14:02:29;9.50;;;9.00;;
17449;SDS011;8842;51.244;7.102;2022-07-23T14:07:41;9.05;;;8.63;;
17449;SDS011;8842;51.244;7.102;2022-07-23T14:12:48;8.88;;;8.48;;
17449;SDS011;8842;51.244;7.102;2022-07-23T14:18:05;9.20;;;8.70;;
17449;SDS011;8842;51.244;7.102;2022-07-23T14:23:09;9.35;;;8.85;;
17449;SDS011;8842;51.244;7.102;2022-07-23T14:28:21;8.90;;;8.50;;
17449;SDS011;8842;51.244;7.102;2022-07-23T14:38:36;8.70;;;8.30;;
17449;SDS011;8842;51.244;7.102;2022-07-23T14:43:40;8.95;;;8.45;;
17449;SDS011;8842;51.244;7.102;2022-07-23T14:48:45;8.90;;;8.50;;
17449;SDS011;8842;51.244;7.102;2022-07-23T14:53:49;9.60;;;9.05;;
17449;SDS011;8842;51.244;7.102;2022-07-23T14:59:01;9.40;;;8.90;;
17449;SDS011;8842;51.244;7.102;2022-07-23T15:04:06;9.45;;;8.95;;
17449;SDS011;8842;51.244;7.102;2022-07-23T15:09:18;9.30;;;8.80;;
17449;SDS011;8842;51.244;7.102;2022-07-23T15:19:33;9.30;;;8.80;;
17449;SDS011;8842;51.244;7.102;2022-07-23T15:24:37;8.90;;;8.50;;
17449;SDS011;8842;51.244;7.102;2022-07-23T15:29:49;9.10;;;8.60;;
17449;SDS011;8842;51.244;7.102;2022-07-23T15:40:07;9.25;;;8.75;;
17449;SDS011;8842;51.244;7.102;2022-07-23T15:45:12;9.55;;;9.05;;
17449;SDS011;8842;51.244;7.102;2022-07-23T15:50:24;9.10;;;8.63;;
17449;SDS011;8842;51.244;7.102;2022-07-23T15:55:36;9.13;;;8.63;;
17449;SDS011;8842;51.244;7.102;2022-07-23T16:06:12;9.50;;;9.00;;
17449;SDS011;8842;51.244;7.102;2022-07-23T16:11:18;9.13;;;8.63;;
17449;SDS011;8842;51.244;7.102;2022-07-23T16:16:30;9.15;;;8.68;;
17449;SDS011;8842;51.244;7.102;2022-07-23T16:21:34;9.43;;;8.93;;
17449;SDS011;8842;51.244;7.102;2022-07-23T16:26:46;8.95;;;8.53;;
17449;SDS011;8842;51.244;7.102;2022-07-23T16:31:51;9.35;;;8.85;;
17449;SDS011;8842;51.244;7.102;2022-07-23T16:37:05;9.20;;;8.70;;
17449;SDS011;8842;51.244;7.102;2022-07-23T16:47:22;9.83;;;9.33;;
17449;SDS011;8842;51.244;7.102;2022-07-23T16:52:26;9.40;;;8.90;;
17449;SDS011;8842;51.244;7.102;2022-07-23T16:57:40;9.60;;;9.10;;
17449;SDS011;8842;51.244;7.102;2022-07-23T17:02:45;9.75;;;9.23;;
17449;SDS011;8842;51.244;7.102;2022-07-23T17:07:57;9.93;;;9.43;;
17449;SDS011;8842;51.244;7.102;2022-07-23T17:13:01;9.68;;;9.18;;
17449;SDS011;8842;51.244;7.102;2022-07-23T17:18:16;9.80;;;9.30;;
17449;SDS011;8842;51.244;7.102;2022-07-23T17:23:20;9.38;;;8.88;;
17449;SDS011;8842;51.244;7.102;2022-07-23T17:28:32;8.90;;;8.50;;
17449;SDS011;8842;51.244;7.102;2022-07-23T17:33:36;9.40;;;8.70;;
17449;SDS011;8842;51.244;7.102;2022-07-23T17:38:48;9.30;;;8.80;;
17449;SDS011;8842;51.244;7.102;2022-07-23T17:43:54;9.38;;;8.88;;
17449;SDS011;8842;51.244;7.102;2022-07-23T17:49:05;9.18;;;8.68;;
17449;SDS011;8842;51.244;7.102;2022-07-23T17:54:20;9.68;;;9.18;;
17449;SDS011;8842;51.244;7.102;2022-07-23T17:59:26;9.68;;;9.18;;
17449;SDS011;8842;51.244;7.102;2022-07-23T18:04:30;9.40;;;8.90;;
17449;SDS011;8842;51.244;7.102;2022-07-23T18:14:53;9.85;;;9.35;;
17449;SDS011;8842;51.244;7.102;2022-07-23T18:19:57;8.80;;;8.40;;
17449;SDS011;8842;51.244;7.102;2022-07-23T18:25:09;8.23;;;7.83;;
17449;SDS011;8842;51.244;7.102;2022-07-23T18:30:14;9.05;;;8.55;;
17449;SDS011;8842;51.244;7.102;2022-07-23T18:35:28;9.00;;;8.60;;
17449;SDS011;8842;51.244;7.102;2022-07-23T18:40:33;9.28;;;8.78;;
17449;SDS011;8842;51.244;7.102;2022-07-23T18:45:45;8.78;;;8.38;;
17449;SDS011;8842;51.244;7.102;2022-07-23T18:56:00;8.90;;;8.50;;
17449;SDS011;8842;51.244;7.102;2022-07-23T19:01:05;9.35;;;8.85;;
17449;SDS011;8842;51.244;7.102;2022-07-23T19:06:16;9.58;;;9.08;;
17449;SDS011;8842;51.244;7.102;2022-07-23T19:11:21;9.75;;;9.25;;
17449;SDS011;8842;51.244;7.102;2022-07-23T19:16:32;9.63;;;9.13;;
17449;SDS011;8842;51.244;7.102;2022-07-23T19:21:37;9.38;;;8.88;;
17449;SDS011;8842;51.244;7.102;2022-07-23T19:26:49;9.43;;;8.93;;
17449;SDS011;8842;51.244;7.102;2022-07-23T19:31:53;9.10;;;8.63;;
17449;SDS011;8842;51.244;7.102;2022-07-23T19:37:05;9.68;;;9.18;;
17449;SDS011;8842;51.244;7.102;2022-07-23T19:42:19;9.28;;;8.78;;
17449;SDS011;8842;51.244;7.102;2022-07-23T19:52:36;9.00;;;8.60;;
17449;SDS011;8842;51.244;7.102;2022-07-23T19:57:40;9.60;;;9.10;;
17449;SDS011;8842;51.244;7.102;2022-07-23T20:02:52;9.63;;;9.13;;
17449;SDS011;8842;51.244;7.102;2022-07-23T20:13:08;9.30;;;8.80;;
17449;SDS011;8842;51.244;7.102;2022-07-23T20:18:15;10.20;;;9.63;;
17449;SDS011;8842;51.244;7.102;2022-07-23T20:23:27;9.97;;;9.47;;
17449;SDS011;8842;51.244;7.102;2022-07-23T20:28:32;9.90;;;9.40;;
17449;SDS011;8842;51.244;7.102;2022-07-23T20:33:44;10.37;;;9.77;;
17449;SDS011;8842;51.244;7.102;2022-07-23T20:38:56;10.13;;;9.53;;
17449;SDS011;8842;51.244;7.102;2022-07-23T20:44:01;10.40;;;9.80;;
17449;SDS011;8842;51.244;7.102;2022-07-23T20:49:58;10.40;;;9.80;;
17449;SDS011;8842;51.244;7.102;2022-07-23T20:55:04;9.97;;;9.47;;
17449;SDS011;8842;51.244;7.102;2022-07-23T21:00:25;10.30;;;9.70;;
17449;SDS011;8842;51.244;7.102;2022-07-23T21:05:30;10.10;;;9.60;;
17449;SDS011;8842;51.244;7.102;2022-07-23T21:10:34;10.37;;;9.83;;
17449;SDS011;8842;51.244;7.102;2022-07-23T21:15:49;10.43;;;9.87;;
17449;SDS011;8842;51.244;7.102;2022-07-23T21:20:54;10.80;;;10.20;;
17449;SDS011;8842;51.244;7.102;2022-07-23T21:26:06;10.40;;;9.70;;
17449;SDS011;8842;51.244;7.102;2022-07-23T21:31:20;9.90;;;9.40;;
17449;SDS011;8842;51.244;7.102;2022-07-23T21:36:24;10.00;;;9.50;;
17449;SDS011;8842;51.244;7.102;2022-07-23T21:41:36;10.17;;;9.67;;
17449;SDS011;8842;51.244;7.102;2022-07-23T21:46:40;10.20;;;9.70;;
17449;SDS011;8842;51.244;7.102;2022-07-23T21:51:52;9.80;;;9.30;;
17449;SDS011;8842;51.244;7.102;2022-07-23T21:56:56;9.90;;;9.40;;
17449;SDS011;8842;51.244;7.102;2022-07-23T22:02:11;10.20;;;9.70;;
17449;SDS011;8842;51.244;7.102;2022-07-23T22:07:15;9.97;;;9.47;;
17449;SDS011;8842;51.244;7.102;2022-07-23T22:12:27;9.80;;;9.30;;
17449;SDS011;8842;51.244;7.102;2022-07-23T22:17:31;9.80;;;9.30;;
17449;SDS011;8842;51.244;7.102;2022-07-23T22:22:44;9.93;;;9.43;;
17449;SDS011;8842;51.244;7.102;2022-07-23T22:27:50;9.97;;;9.47;;
17449;SDS011;8842;51.244;7.102;2022-07-23T22:33:01;9.70;;;9.20;;
17449;SDS011;8842;51.244;7.102;2022-07-23T22:43:17;9.50;;;9.00;;
17449;SDS011;8842;51.244;7.102;2022-07-23T22:48:21;10.00;;;9.50;;
17449;SDS011;8842;51.244;7.102;2022-07-23T22:53:33;9.80;;;9.30;;
17449;SDS011;8842;51.244;7.102;2022-07-23T23:03:51;9.97;;;9.47;;
17449;SDS011;8842;51.244;7.102;2022-07-23T23:08:55;9.70;;;9.20;;
17449;SDS011;8842;51.244;7.102;2022-07-23T23:14:07;9.43;;;8.93;;
17449;SDS011;8842;51.244;7.102;2022-07-23T23:19:11;10.00;;;9.50;;
17449;SDS011;8842;51.244;7.102;2022-07-23T23:24:25;9.30;;;8.80;;
17449;SDS011;8842;51.244;7.102;2022-07-23T23:34:41;9.63;;;9.13;;
17449;SDS011;8842;51.244;7.102;2022-07-23T23:44:56;9.43;;;8.93;;
17449;SDS011;8842;51.244;7.102;2022-07-23T23:50:02;9.50;;;9.00;;
17449;SDS011;8842;51.244;7.102;2022-07-23T23:55:17;9.70;;;9.20;;
